sensor_id;sensor_type;location;lat;lon;timestamp;P1;durP1;ratioP1;P2;durP2;ratioP2
17753;SDS011;8999;48.994;9.150;2023-06-10T00:01:22;5.88;;;5.25;;
17753;SDS011;8999;48.994;9.150;2023-06-10T00:03:54;6.35;;;5.75;;
17753;SDS011;8999;48.994;9.150;2023-06-10T00:06:26;6.57;;;5.93;;
17753;SDS011;8999;48.994;9.150;2023-06-10T00:09:00;6.95;;;6.32;;
17753;SDS011;8999;48.994;9.150;2023-06-10T00:11:31;6.57;;;5.80;;
17753;SDS011;8999;48.994;9.150;2023-06-10T00:14:03;8.70;;;6.05;;
17753;SDS011;8999;48.994;9.150;2023-06-10T00:16:35;7.82;;;6.43;;
17753;SDS011;8999;48.994;9.150;2023-06-10T00:19:08;8.73;;;6.82;;
17753;SDS011;8999;48.994;9.150;2023-06-10T00:21:43;8.85;;;6.50;;
17753;SDS011;8999;48.994;9.150;2023-06-10T00:24:16;11.52;;;7.30;;
17753;SDS011;8999;48.994;9.150;2023-06-10T00:26:48;10.63;;;7.85;;
17753;SDS011;8999;48.994;9.150;2023-06-10T00:29:19;12.52;;;8.48;;
17753;SDS011;8999;48.994;9.150;2023-06-10T00:31:51;9.20;;;7.07;;
17753;SDS011;8999;48.994;9.150;2023-06-10T00:34:27;9.15;;;7.00;;
17753;SDS011;8999;48.994;9.150;2023-06-10T00:36:59;8.40;;;6.82;;
17753;SDS011;8999;48.994;9.150;2023-06-10T00:39:32;10.15;;;7.65;;
17753;SDS011;8999;48.994;9.150;2023-06-10T00:42:04;9.80;;;7.75;;
17753;SDS011;8999;48.994;9.150;2023-06-10T00:44:37;10.30;;;8.10;;
17753;SDS011;8999;48.994;9.150;2023-06-10T00:47:08;9.93;;;7.82;;
17753;SDS011;8999;48.994;9.150;2023-06-10T00:49:40;10.00;;;7.57;;
17753;SDS011;8999;48.994;9.150;2023-06-10T00:52:12;8.68;;;7.28;;
17753;SDS011;8999;48.994;9.150;2023-06-10T00:54:47;8.48;;;7.15;;
17753;SDS011;8999;48.994;9.150;2023-06-10T00:57:19;8.05;;;7.03;;
17753;SDS011;8999;48.994;9.150;2023-06-10T00:59:51;9.15;;;7.32;;
17753;SDS011;8999;48.994;9.150;2023-06-10T01:02:22;7.60;;;6.80;;
17753;SDS011;8999;48.994;9.150;2023-06-10T01:04:54;9.20;;;7.50;;
17753;SDS011;8999;48.994;9.150;2023-06-10T01:07:27;11.25;;;7.72;;
17753;SDS011;8999;48.994;9.150;2023-06-10T01:10:05;9.80;;;7.05;;
17753;SDS011;8999;48.994;9.150;2023-06-10T01:12:43;7.97;;;7.13;;
17753;SDS011;8999;48.994;9.150;2023-06-10T01:15:18;9.45;;;7.63;;
17753;SDS011;8999;48.994;9.150;2023-06-10T01:17:57;10.05;;;7.40;;
17753;SDS011;8999;48.994;9.150;2023-06-10T01:20:29;8.65;;;7.75;;
17753;SDS011;8999;48.994;9.150;2023-06-10T01:23:03;8.38;;;7.47;;
17753;SDS011;8999;48.994;9.150;2023-06-10T01:25:37;10.55;;;7.13;;
17753;SDS011;8999;48.994;9.150;2023-06-10T01:28:10;7.72;;;6.90;;
17753;SDS011;8999;48.994;9.150;2023-06-10T01:30:46;8.23;;;7.35;;
17753;SDS011;8999;48.994;9.150;2023-06-10T01:33:22;9.07;;;6.90;;
17753;SDS011;8999;48.994;9.150;2023-06-10T01:35:56;9.65;;;7.55;;
17753;SDS011;8999;48.994;9.150;2023-06-10T01:38:30;10.00;;;7.47;;
17753;SDS011;8999;48.994;9.150;2023-06-10T01:41:04;8.80;;;7.90;;
17753;SDS011;8999;48.994;9.150;2023-06-10T01:43:37;8.48;;;7.68;;
17753;SDS011;8999;48.994;9.150;2023-06-10T01:46:09;8.02;;;7.15;;
17753;SDS011;8999;48.994;9.150;2023-06-10T01:48:41;8.43;;;7.63;;
17753;SDS011;8999;48.994;9.150;2023-06-10T01:51:13;8.85;;;7.95;;
17753;SDS011;8999;48.994;9.150;2023-06-10T01:53:46;10.00;;;7.40;;
17753;SDS011;8999;48.994;9.150;2023-06-10T01:56:17;13.18;;;7.00;;
17753;SDS011;8999;48.994;9.150;2023-06-10T01:58:53;8.55;;;7.65;;
17753;SDS011;8999;48.994;9.150;2023-06-10T02:01:33;7.60;;;6.80;;
17753;SDS011;8999;48.994;9.150;2023-06-10T02:04:04;7.97;;;6.63;;
17753;SDS011;8999;48.994;9.150;2023-06-10T02:06:36;8.80;;;6.63;;
17753;SDS011;8999;48.994;9.150;2023-06-10T02:09:09;7.75;;;6.55;;
17753;SDS011;8999;48.994;9.150;2023-06-10T02:11:41;8.38;;;7.07;;
17753;SDS011;8999;48.994;9.150;2023-06-10T02:14:13;7.53;;;6.70;;
17753;SDS011;8999;48.994;9.150;2023-06-10T02:16:44;7.80;;;6.90;;
17753;SDS011;8999;48.994;9.150;2023-06-10T02:19:16;8.10;;;7.15;;
17753;SDS011;8999;48.994;9.150;2023-06-10T02:21:51;9.20;;;7.88;;
17753;SDS011;8999;48.994;9.150;2023-06-10T02:24:24;8.05;;;7.25;;
17753;SDS011;8999;48.994;9.150;2023-06-10T02:26:56;8.73;;;6.75;;
17753;SDS011;8999;48.994;9.150;2023-06-10T02:29:30;8.82;;;7.53;;
17753;SDS011;8999;48.994;9.150;2023-06-10T02:32:02;8.52;;;7.47;;
17753;SDS011;8999;48.994;9.150;2023-06-10T02:34:34;9.63;;;7.68;;
17753;SDS011;8999;48.994;9.150;2023-06-10T02:37:06;9.00;;;8.02;;
17753;SDS011;8999;48.994;9.150;2023-06-10T02:39:39;8.65;;;7.75;;
17753;SDS011;8999;48.994;9.150;2023-06-10T02:42:11;7.70;;;6.90;;
17753;SDS011;8999;48.994;9.150;2023-06-10T02:44:43;8.40;;;7.25;;
17753;SDS011;8999;48.994;9.150;2023-06-10T02:47:14;8.73;;;7.60;;
17753;SDS011;8999;48.994;9.150;2023-06-10T02:49:46;7.72;;;7.03;;
17753;SDS011;8999;48.994;9.150;2023-06-10T02:52:18;8.85;;;7.90;;
17753;SDS011;8999;48.994;9.150;2023-06-10T02:54:51;8.57;;;7.68;;
17753;SDS011;8999;48.994;9.150;2023-06-10T02:57:23;9.07;;;7.80;;
17753;SDS011;8999;48.994;9.150;2023-06-10T02:59:55;8.95;;;8.05;;
17753;SDS011;8999;48.994;9.150;2023-06-10T03:02:28;12.93;;;7.78;;
17753;SDS011;8999;48.994;9.150;2023-06-10T03:05:01;10.50;;;8.57;;
17753;SDS011;8999;48.994;9.150;2023-06-10T03:07:33;8.70;;;7.82;;
17753;SDS011;8999;48.994;9.150;2023-06-10T03:10:07;8.82;;;7.93;;
17753;SDS011;8999;48.994;9.150;2023-06-10T03:12:39;8.60;;;7.75;;
17753;SDS011;8999;48.994;9.150;2023-06-10T03:15:11;10.13;;;8.05;;
17753;SDS011;8999;48.994;9.150;2023-06-10T03:17:43;10.73;;;8.68;;
17753;SDS011;8999;48.994;9.150;2023-06-10T03:20:14;8.70;;;7.80;;
17753;SDS011;8999;48.994;9.150;2023-06-10T03:22:47;8.45;;;7.60;;
17753;SDS011;8999;48.994;9.150;2023-06-10T03:25:20;9.20;;;7.95;;
17753;SDS011;8999;48.994;9.150;2023-06-10T03:27:51;9.02;;;8.13;;
17753;SDS011;8999;48.994;9.150;2023-06-10T03:30:23;12.52;;;8.90;;
17753;SDS011;8999;48.994;9.150;2023-06-10T03:32:55;8.55;;;7.65;;
17753;SDS011;8999;48.994;9.150;2023-06-10T03:35:26;8.05;;;7.25;;
17753;SDS011;8999;48.994;9.150;2023-06-10T03:37:58;9.75;;;7.88;;
17753;SDS011;8999;48.994;9.150;2023-06-10T03:40:31;8.82;;;7.93;;
17753;SDS011;8999;48.994;9.150;2023-06-10T03:43:03;8.57;;;7.40;;
17753;SDS011;8999;48.994;9.150;2023-06-10T03:45:34;11.95;;;8.88;;
17753;SDS011;8999;48.994;9.150;2023-06-10T03:48:06;8.88;;;7.97;;
17753;SDS011;8999;48.994;9.150;2023-06-10T03:50:38;8.80;;;7.78;;
17753;SDS011;8999;48.994;9.150;2023-06-10T03:53:10;8.93;;;8.02;;
17753;SDS011;8999;48.994;9.150;2023-06-10T03:55:43;8.95;;;8.05;;
17753;SDS011;8999;48.994;9.150;2023-06-10T03:58:14;9.60;;;8.57;;
17753;SDS011;8999;48.994;9.150;2023-06-10T04:00:48;10.20;;;8.48;;
17753;SDS011;8999;48.994;9.150;2023-06-10T04:03:19;9.32;;;8.43;;
17753;SDS011;8999;48.994;9.150;2023-06-10T04:05:51;8.85;;;7.95;;
17753;SDS011;8999;48.994;9.150;2023-06-10T04:08:23;9.05;;;8.13;;
17753;SDS011;8999;48.994;9.150;2023-06-10T04:10:56;11.05;;;8.93;;
17753;SDS011;8999;48.994;9.150;2023-06-10T04:13:28;9.43;;;8.15;;
17753;SDS011;8999;48.994;9.150;2023-06-10T04:15:59;9.07;;;8.18;;
17753;SDS011;8999;48.994;9.150;2023-06-10T04:18:31;9.27;;;8.38;;
17753;SDS011;8999;48.994;9.150;2023-06-10T04:21:03;10.07;;;9.07;;
17753;SDS011;8999;48.994;9.150;2023-06-10T04:23:34;8.60;;;7.80;;
17753;SDS011;8999;48.994;9.150;2023-06-10T04:26:08;10.02;;;8.93;;
17753;SDS011;8999;48.994;9.150;2023-06-10T04:28:42;12.07;;;9.10;;
17753;SDS011;8999;48.994;9.150;2023-06-10T04:31:14;11.10;;;9.82;;
17753;SDS011;8999;48.994;9.150;2023-06-10T04:33:46;10.18;;;9.10;;
17753;SDS011;8999;48.994;9.150;2023-06-10T04:36:17;11.95;;;9.15;;
17753;SDS011;8999;48.994;9.150;2023-06-10T04:38:49;12.63;;;9.25;;
17753;SDS011;8999;48.994;9.150;2023-06-10T04:41:23;8.30;;;7.50;;
17753;SDS011;8999;48.994;9.150;2023-06-10T04:43:55;10.23;;;8.88;;
17753;SDS011;8999;48.994;9.150;2023-06-10T04:46:27;9.32;;;8.43;;
17753;SDS011;8999;48.994;9.150;2023-06-10T04:49:00;8.60;;;7.60;;
17753;SDS011;8999;48.994;9.150;2023-06-10T04:51:32;8.25;;;7.45;;
17753;SDS011;8999;48.994;9.150;2023-06-10T04:54:04;8.48;;;7.60;;
17753;SDS011;8999;48.994;9.150;2023-06-10T04:56:37;8.35;;;7.55;;
17753;SDS011;8999;48.994;9.150;2023-06-10T04:59:11;9.80;;;8.43;;
17753;SDS011;8999;48.994;9.150;2023-06-10T05:01:44;8.60;;;7.80;;
17753;SDS011;8999;48.994;9.150;2023-06-10T05:04:16;8.68;;;7.82;;
17753;SDS011;8999;48.994;9.150;2023-06-10T05:06:47;8.15;;;7.32;;
17753;SDS011;8999;48.994;9.150;2023-06-10T05:09:19;8.43;;;7.57;;
17753;SDS011;8999;48.994;9.150;2023-06-10T05:11:52;9.27;;;7.70;;
17753;SDS011;8999;48.994;9.150;2023-06-10T05:14:25;9.02;;;7.45;;
17753;SDS011;8999;48.994;9.150;2023-06-10T05:16:57;8.73;;;6.95;;
17753;SDS011;8999;48.994;9.150;2023-06-10T05:19:29;14.35;;;7.43;;
17753;SDS011;8999;48.994;9.150;2023-06-10T05:22:00;8.18;;;7.38;;
17753;SDS011;8999;48.994;9.150;2023-06-10T05:24:32;7.88;;;7.18;;
17753;SDS011;8999;48.994;9.150;2023-06-10T05:27:05;7.00;;;6.30;;
17753;SDS011;8999;48.994;9.150;2023-06-10T05:29:38;8.40;;;7.38;;
17753;SDS011;8999;48.994;9.150;2023-06-10T05:32:10;7.75;;;6.35;;
17753;SDS011;8999;48.994;9.150;2023-06-10T05:34:42;8.32;;;7.00;;
17753;SDS011;8999;48.994;9.150;2023-06-10T05:37:14;8.10;;;7.30;;
17753;SDS011;8999;48.994;9.150;2023-06-10T05:39:45;7.72;;;6.93;;
17753;SDS011;8999;48.994;9.150;2023-06-10T05:42:18;7.57;;;6.70;;
17753;SDS011;8999;48.994;9.150;2023-06-10T05:44:50;7.60;;;6.78;;
17753;SDS011;8999;48.994;9.150;2023-06-10T05:47:22;10.70;;;6.38;;
17753;SDS011;8999;48.994;9.150;2023-06-10T05:49:53;6.47;;;5.88;;
17753;SDS011;8999;48.994;9.150;2023-06-10T05:52:25;7.88;;;6.38;;
17753;SDS011;8999;48.994;9.150;2023-06-10T05:54:57;6.40;;;5.80;;
17753;SDS011;8999;48.994;9.150;2023-06-10T05:57:31;6.35;;;5.70;;
17753;SDS011;8999;48.994;9.150;2023-06-10T06:00:02;6.18;;;5.57;;
17753;SDS011;8999;48.994;9.150;2023-06-10T06:02:35;6.38;;;5.65;;
17753;SDS011;8999;48.994;9.150;2023-06-10T06:05:06;7.47;;;5.78;;
17753;SDS011;8999;48.994;9.150;2023-06-10T06:07:38;7.20;;;5.93;;
17753;SDS011;8999;48.994;9.150;2023-06-10T06:10:10;6.28;;;5.60;;
17753;SDS011;8999;48.994;9.150;2023-06-10T06:12:43;6.72;;;5.55;;
17753;SDS011;8999;48.994;9.150;2023-06-10T06:15:15;6.13;;;5.53;;
17753;SDS011;8999;48.994;9.150;2023-06-10T06:17:46;7.95;;;5.70;;
17753;SDS011;8999;48.994;9.150;2023-06-10T06:20:18;6.45;;;5.72;;
17753;SDS011;8999;48.994;9.150;2023-06-10T06:22:51;6.38;;;5.60;;
17753;SDS011;8999;48.994;9.150;2023-06-10T06:25:22;10.63;;;9.40;;
17753;SDS011;8999;48.994;9.150;2023-06-10T06:27:55;8.32;;;5.57;;
17753;SDS011;8999;48.994;9.150;2023-06-10T06:30:27;6.20;;;5.60;;
17753;SDS011;8999;48.994;9.150;2023-06-10T06:32:59;8.80;;;5.85;;
17753;SDS011;8999;48.994;9.150;2023-06-10T06:35:30;7.13;;;5.35;;
17753;SDS011;8999;48.994;9.150;2023-06-10T06:38:04;9.25;;;5.80;;
17753;SDS011;8999;48.994;9.150;2023-06-10T06:40:35;5.82;;;5.30;;
17753;SDS011;8999;48.994;9.150;2023-06-10T06:43:08;6.70;;;5.70;;
17753;SDS011;8999;48.994;9.150;2023-06-10T06:45:40;5.88;;;4.97;;
17753;SDS011;8999;48.994;9.150;2023-06-10T06:48:12;6.32;;;5.72;;
17753;SDS011;8999;48.994;9.150;2023-06-10T06:50:43;5.63;;;5.05;;
17753;SDS011;8999;48.994;9.150;2023-06-10T06:53:15;6.53;;;5.13;;
17753;SDS011;8999;48.994;9.150;2023-06-10T06:55:47;5.38;;;4.88;;
17753;SDS011;8999;48.994;9.150;2023-06-10T06:58:20;6.57;;;5.38;;
17753;SDS011;8999;48.994;9.150;2023-06-10T07:00:52;6.45;;;5.85;;
17753;SDS011;8999;48.994;9.150;2023-06-10T07:03:23;6.93;;;5.13;;
17753;SDS011;8999;48.994;9.150;2023-06-10T07:05:55;6.22;;;5.10;;
17753;SDS011;8999;48.994;9.150;2023-06-10T07:08:26;10.55;;;5.25;;
17753;SDS011;8999;48.994;9.150;2023-06-10T07:10:58;6.20;;;5.03;;
17753;SDS011;8999;48.994;9.150;2023-06-10T07:13:31;6.53;;;4.57;;
17753;SDS011;8999;48.994;9.150;2023-06-10T07:16:03;6.18;;;5.13;;
17753;SDS011;8999;48.994;9.150;2023-06-10T07:18:35;6.07;;;4.80;;
17753;SDS011;8999;48.994;9.150;2023-06-10T07:21:06;6.30;;;4.55;;
17753;SDS011;8999;48.994;9.150;2023-06-10T07:23:41;5.07;;;4.55;;
17753;SDS011;8999;48.994;9.150;2023-06-10T07:26:13;4.28;;;3.88;;
17753;SDS011;8999;48.994;9.150;2023-06-10T07:28:46;4.82;;;4.32;;
17753;SDS011;8999;48.994;9.150;2023-06-10T07:31:17;4.55;;;4.10;;
17753;SDS011;8999;48.994;9.150;2023-06-10T07:33:49;4.80;;;4.38;;
17753;SDS011;8999;48.994;9.150;2023-06-10T07:36:21;4.47;;;4.07;;
17753;SDS011;8999;48.994;9.150;2023-06-10T07:38:52;5.30;;;3.80;;
17753;SDS011;8999;48.994;9.150;2023-06-10T07:41:24;4.10;;;3.63;;
17753;SDS011;8999;48.994;9.150;2023-06-10T07:43:57;4.55;;;4.18;;
17753;SDS011;8999;48.994;9.150;2023-06-10T07:46:29;10.77;;;3.75;;
17753;SDS011;8999;48.994;9.150;2023-06-10T07:49:01;4.65;;;3.80;;
17753;SDS011;8999;48.994;9.150;2023-06-10T07:51:33;4.82;;;4.20;;
17753;SDS011;8999;48.994;9.150;2023-06-10T07:54:05;4.85;;;4.38;;
17753;SDS011;8999;48.994;9.150;2023-06-10T07:56:36;4.65;;;4.25;;
17753;SDS011;8999;48.994;9.150;2023-06-10T07:59:09;7.22;;;4.57;;
17753;SDS011;8999;48.994;9.150;2023-06-10T08:01:41;4.50;;;4.10;;
17753;SDS011;8999;48.994;9.150;2023-06-10T08:04:13;5.20;;;3.95;;
17753;SDS011;8999;48.994;9.150;2023-06-10T08:06:45;4.45;;;4.03;;
17753;SDS011;8999;48.994;9.150;2023-06-10T08:09:16;6.70;;;4.43;;
17753;SDS011;8999;48.994;9.150;2023-06-10T08:11:49;4.28;;;3.88;;
17753;SDS011;8999;48.994;9.150;2023-06-10T08:14:22;4.95;;;4.50;;
17753;SDS011;8999;48.994;9.150;2023-06-10T08:16:53;5.47;;;4.15;;
17753;SDS011;8999;48.994;9.150;2023-06-10T08:19:25;6.53;;;4.05;;
17753;SDS011;8999;48.994;9.150;2023-06-10T08:21:57;6.18;;;4.03;;
17753;SDS011;8999;48.994;9.150;2023-06-10T08:24:28;5.47;;;4.03;;
17753;SDS011;8999;48.994;9.150;2023-06-10T08:27:00;5.65;;;4.45;;
17753;SDS011;8999;48.994;9.150;2023-06-10T08:29:33;4.50;;;4.10;;
17753;SDS011;8999;48.994;9.150;2023-06-10T08:32:05;4.35;;;3.95;;
17753;SDS011;8999;48.994;9.150;2023-06-10T08:34:37;4.38;;;3.97;;
17753;SDS011;8999;48.994;9.150;2023-06-10T08:37:09;4.28;;;3.72;;
17753;SDS011;8999;48.994;9.150;2023-06-10T08:39:41;4.70;;;4.20;;
17753;SDS011;8999;48.994;9.150;2023-06-10T08:42:15;4.60;;;4.20;;
17753;SDS011;8999;48.994;9.150;2023-06-10T08:44:53;4.93;;;4.00;;
17753;SDS011;8999;48.994;9.150;2023-06-10T08:47:26;4.30;;;4.00;;
17753;SDS011;8999;48.994;9.150;2023-06-10T08:50:01;4.90;;;4.40;;
17753;SDS011;8999;48.994;9.150;2023-06-10T08:52:35;4.53;;;4.13;;
17753;SDS011;8999;48.994;9.150;2023-06-10T08:55:10;5.95;;;3.88;;
17753;SDS011;8999;48.994;9.150;2023-06-10T08:57:43;4.65;;;4.22;;
17753;SDS011;8999;48.994;9.150;2023-06-10T09:00:17;4.93;;;4.15;;
17753;SDS011;8999;48.994;9.150;2023-06-10T09:02:48;4.38;;;4.07;;
17753;SDS011;8999;48.994;9.150;2023-06-10T09:05:21;4.78;;;4.20;;
17753;SDS011;8999;48.994;9.150;2023-06-10T09:07:53;6.00;;;4.20;;
17753;SDS011;8999;48.994;9.150;2023-06-10T09:10:25;4.50;;;4.10;;
17753;SDS011;8999;48.994;9.150;2023-06-10T09:12:57;6.65;;;4.53;;
17753;SDS011;8999;48.994;9.150;2023-06-10T09:15:30;5.13;;;4.57;;
17753;SDS011;8999;48.994;9.150;2023-06-10T09:18:02;5.18;;;4.68;;
17753;SDS011;8999;48.994;9.150;2023-06-10T09:20:35;4.13;;;3.72;;
17753;SDS011;8999;48.994;9.150;2023-06-10T09:23:07;6.10;;;4.43;;
17753;SDS011;8999;48.994;9.150;2023-06-10T09:25:38;4.32;;;3.92;;
17753;SDS011;8999;48.994;9.150;2023-06-10T09:28:13;4.28;;;3.88;;
17753;SDS011;8999;48.994;9.150;2023-06-10T09:30:47;4.25;;;3.75;;
17753;SDS011;8999;48.994;9.150;2023-06-10T09:33:19;5.90;;;3.78;;
17753;SDS011;8999;48.994;9.150;2023-06-10T09:35:56;4.63;;;4.15;;
17753;SDS011;8999;48.994;9.150;2023-06-10T09:38:31;5.35;;;4.30;;
17753;SDS011;8999;48.994;9.150;2023-06-10T09:41:03;3.95;;;3.65;;
17753;SDS011;8999;48.994;9.150;2023-06-10T09:43:39;3.80;;;3.50;;
17753;SDS011;8999;48.994;9.150;2023-06-10T09:46:16;4.28;;;3.88;;
17753;SDS011;8999;48.994;9.150;2023-06-10T09:48:48;3.88;;;3.50;;
17753;SDS011;8999;48.994;9.150;2023-06-10T09:51:20;4.47;;;3.90;;
17753;SDS011;8999;48.994;9.150;2023-06-10T09:53:53;4.30;;;3.90;;
17753;SDS011;8999;48.994;9.150;2023-06-10T09:56:32;5.13;;;3.30;;
17753;SDS011;8999;48.994;9.150;2023-06-10T09:59:04;3.63;;;3.33;;
17753;SDS011;8999;48.994;9.150;2023-06-10T10:01:37;4.15;;;3.60;;
17753;SDS011;8999;48.994;9.150;2023-06-10T10:04:09;4.05;;;3.63;;
17753;SDS011;8999;48.994;9.150;2023-06-10T10:06:41;4.15;;;3.72;;
17753;SDS011;8999;48.994;9.150;2023-06-10T10:09:12;5.25;;;3.55;;
17753;SDS011;8999;48.994;9.150;2023-06-10T10:11:44;4.07;;;3.70;;
17753;SDS011;8999;48.994;9.150;2023-06-10T10:14:17;3.70;;;3.40;;
17753;SDS011;8999;48.994;9.150;2023-06-10T10:16:51;4.32;;;3.92;;
17753;SDS011;8999;48.994;9.150;2023-06-10T10:19:25;3.53;;;3.22;;
17753;SDS011;8999;48.994;9.150;2023-06-10T10:22:01;4.55;;;3.70;;
17753;SDS011;8999;48.994;9.150;2023-06-10T10:24:33;4.95;;;3.58;;
17753;SDS011;8999;48.994;9.150;2023-06-10T10:27:11;3.97;;;3.40;;
17753;SDS011;8999;48.994;9.150;2023-06-10T10:29:45;6.28;;;3.55;;
17753;SDS011;8999;48.994;9.150;2023-06-10T10:32:20;3.70;;;3.38;;
17753;SDS011;8999;48.994;9.150;2023-06-10T10:34:59;4.18;;;3.80;;
17753;SDS011;8999;48.994;9.150;2023-06-10T10:37:36;4.70;;;3.92;;
17753;SDS011;8999;48.994;9.150;2023-06-10T10:40:07;4.60;;;3.72;;
17753;SDS011;8999;48.994;9.150;2023-06-10T10:42:40;4.18;;;3.50;;
17753;SDS011;8999;48.994;9.150;2023-06-10T10:45:12;5.72;;;3.60;;
17753;SDS011;8999;48.994;9.150;2023-06-10T10:47:45;4.10;;;3.70;;
17753;SDS011;8999;48.994;9.150;2023-06-10T10:50:18;3.92;;;3.58;;
17753;SDS011;8999;48.994;9.150;2023-06-10T10:52:51;4.07;;;3.78;;
17753;SDS011;8999;48.994;9.150;2023-06-10T10:55:26;4.20;;;3.80;;
17753;SDS011;8999;48.994;9.150;2023-06-10T10:57:58;4.20;;;3.80;;
17753;SDS011;8999;48.994;9.150;2023-06-10T11:00:31;5.30;;;3.47;;
17753;SDS011;8999;48.994;9.150;2023-06-10T11:03:06;4.35;;;3.95;;
17753;SDS011;8999;48.994;9.150;2023-06-10T11:05:39;4.68;;;3.75;;
17753;SDS011;8999;48.994;9.150;2023-06-10T11:08:14;4.00;;;3.60;;
17753;SDS011;8999;48.994;9.150;2023-06-10T11:10:50;4.57;;;3.42;;
17753;SDS011;8999;48.994;9.150;2023-06-10T11:13:22;3.70;;;3.35;;
17753;SDS011;8999;48.994;9.150;2023-06-10T11:15:56;6.10;;;3.38;;
17753;SDS011;8999;48.994;9.150;2023-06-10T11:18:30;4.75;;;3.40;;
17753;SDS011;8999;48.994;9.150;2023-06-10T11:21:06;3.50;;;3.20;;
17753;SDS011;8999;48.994;9.150;2023-06-10T11:23:39;3.80;;;3.40;;
17753;SDS011;8999;48.994;9.150;2023-06-10T11:26:16;3.90;;;3.60;;
17753;SDS011;8999;48.994;9.150;2023-06-10T11:29:07;5.15;;;3.47;;
17753;SDS011;8999;48.994;9.150;2023-06-10T11:31:43;3.70;;;3.40;;
17753;SDS011;8999;48.994;9.150;2023-06-10T11:34:24;4.65;;;3.72;;
17753;SDS011;8999;48.994;9.150;2023-06-10T11:36:57;4.30;;;3.80;;
17753;SDS011;8999;48.994;9.150;2023-06-10T11:39:30;4.95;;;3.85;;
17753;SDS011;8999;48.994;9.150;2023-06-10T11:42:02;4.53;;;4.05;;
17753;SDS011;8999;48.994;9.150;2023-06-10T11:44:35;21.25;;;15.27;;
17753;SDS011;8999;48.994;9.150;2023-06-10T11:47:09;4.28;;;3.88;;
17753;SDS011;8999;48.994;9.150;2023-06-10T11:49:55;4.30;;;3.90;;
17753;SDS011;8999;48.994;9.150;2023-06-10T11:52:29;6.68;;;4.22;;
17753;SDS011;8999;48.994;9.150;2023-06-10T11:55:02;3.72;;;3.42;;
17753;SDS011;8999;48.994;9.150;2023-06-10T11:57:35;5.25;;;4.75;;
17753;SDS011;8999;48.994;9.150;2023-06-10T12:00:07;5.82;;;3.70;;
17753;SDS011;8999;48.994;9.150;2023-06-10T12:02:39;4.18;;;3.78;;
17753;SDS011;8999;48.994;9.150;2023-06-10T12:05:14;4.82;;;3.40;;
17753;SDS011;8999;48.994;9.150;2023-06-10T12:07:48;3.88;;;3.53;;
17753;SDS011;8999;48.994;9.150;2023-06-10T12:10:20;5.68;;;3.58;;
17753;SDS011;8999;48.994;9.150;2023-06-10T12:12:52;4.53;;;3.75;;
17753;SDS011;8999;48.994;9.150;2023-06-10T12:15:23;3.67;;;3.38;;
17753;SDS011;8999;48.994;9.150;2023-06-10T12:17:56;4.20;;;3.80;;
17753;SDS011;8999;48.994;9.150;2023-06-10T12:20:30;4.78;;;3.60;;
17753;SDS011;8999;48.994;9.150;2023-06-10T12:23:08;4.18;;;3.78;;
17753;SDS011;8999;48.994;9.150;2023-06-10T12:25:49;3.80;;;3.50;;
17753;SDS011;8999;48.994;9.150;2023-06-10T12:28:22;3.80;;;3.50;;
17753;SDS011;8999;48.994;9.150;2023-06-10T12:31:06;4.57;;;3.50;;
17753;SDS011;8999;48.994;9.150;2023-06-10T12:33:38;4.60;;;3.80;;
17753;SDS011;8999;48.994;9.150;2023-06-10T12:36:17;4.05;;;3.70;;
17753;SDS011;8999;48.994;9.150;2023-06-10T12:38:48;4.10;;;3.70;;
17753;SDS011;8999;48.994;9.150;2023-06-10T12:41:22;5.82;;;3.80;;
17753;SDS011;8999;48.994;9.150;2023-06-10T12:43:55;4.15;;;3.72;;
17753;SDS011;8999;48.994;9.150;2023-06-10T12:46:35;3.88;;;3.13;;
17753;SDS011;8999;48.994;9.150;2023-06-10T12:49:07;5.90;;;3.65;;
17753;SDS011;8999;48.994;9.150;2023-06-10T12:51:40;4.32;;;3.33;;
17753;SDS011;8999;48.994;9.150;2023-06-10T12:54:12;3.20;;;3.00;;
17753;SDS011;8999;48.994;9.150;2023-06-10T12:56:44;4.20;;;3.00;;
17753;SDS011;8999;48.994;9.150;2023-06-10T12:59:16;3.20;;;2.90;;
17753;SDS011;8999;48.994;9.150;2023-06-10T13:01:49;3.90;;;2.75;;
17753;SDS011;8999;48.994;9.150;2023-06-10T13:04:22;3.83;;;3.03;;
17753;SDS011;8999;48.994;9.150;2023-06-10T13:06:55;3.25;;;2.65;;
17753;SDS011;8999;48.994;9.150;2023-06-10T13:09:27;3.78;;;3.03;;
17753;SDS011;8999;48.994;9.150;2023-06-10T13:11:58;7.30;;;3.10;;
17753;SDS011;8999;48.994;9.150;2023-06-10T13:14:31;3.38;;;3.08;;
17753;SDS011;8999;48.994;9.150;2023-06-10T13:17:03;3.45;;;3.15;;
17753;SDS011;8999;48.994;9.150;2023-06-10T13:19:35;3.40;;;3.10;;
17753;SDS011;8999;48.994;9.150;2023-06-10T13:22:09;4.30;;;2.80;;
17753;SDS011;8999;48.994;9.150;2023-06-10T13:24:40;3.28;;;2.97;;
17753;SDS011;8999;48.994;9.150;2023-06-10T13:27:13;4.45;;;3.10;;
17753;SDS011;8999;48.994;9.150;2023-06-10T13:29:45;3.35;;;3.05;;
17753;SDS011;8999;48.994;9.150;2023-06-10T13:32:17;3.47;;;3.17;;
17753;SDS011;8999;48.994;9.150;2023-06-10T13:34:48;3.50;;;3.20;;
17753;SDS011;8999;48.994;9.150;2023-06-10T13:37:21;3.30;;;3.00;;
17753;SDS011;8999;48.994;9.150;2023-06-10T13:39:53;5.60;;;3.47;;
17753;SDS011;8999;48.994;9.150;2023-06-10T13:42:25;3.35;;;3.05;;
17753;SDS011;8999;48.994;9.150;2023-06-10T13:44:59;4.30;;;3.60;;
17753;SDS011;8999;48.994;9.150;2023-06-10T13:47:30;4.85;;;3.40;;
17753;SDS011;8999;48.994;9.150;2023-06-10T13:50:02;4.00;;;3.33;;
17753;SDS011;8999;48.994;9.150;2023-06-10T13:52:35;3.88;;;3.40;;
17753;SDS011;8999;48.994;9.150;2023-06-10T13:55:07;6.13;;;3.60;;
17753;SDS011;8999;48.994;9.150;2023-06-10T13:57:39;3.78;;;3.47;;
17753;SDS011;8999;48.994;9.150;2023-06-10T14:00:11;3.50;;;3.20;;
17753;SDS011;8999;48.994;9.150;2023-06-10T14:02:43;5.13;;;3.28;;
17753;SDS011;8999;48.994;9.150;2023-06-10T14:05:15;3.40;;;3.10;;
17753;SDS011;8999;48.994;9.150;2023-06-10T14:07:48;3.28;;;2.97;;
17753;SDS011;8999;48.994;9.150;2023-06-10T14:10:20;3.70;;;3.40;;
17753;SDS011;8999;48.994;9.150;2023-06-10T14:12:51;3.30;;;3.00;;
17753;SDS011;8999;48.994;9.150;2023-06-10T14:15:23;3.63;;;3.30;;
17753;SDS011;8999;48.994;9.150;2023-06-10T14:17:55;4.28;;;3.20;;
17753;SDS011;8999;48.994;9.150;2023-06-10T14:20:26;3.00;;;2.80;;
17753;SDS011;8999;48.994;9.150;2023-06-10T14:23:02;3.65;;;3.33;;
17753;SDS011;8999;48.994;9.150;2023-06-10T14:25:34;5.50;;;3.20;;
17753;SDS011;8999;48.994;9.150;2023-06-10T14:28:06;3.70;;;3.40;;
17753;SDS011;8999;48.994;9.150;2023-06-10T14:30:37;3.20;;;2.90;;
17753;SDS011;8999;48.994;9.150;2023-06-10T14:33:09;2.90;;;2.70;;
17753;SDS011;8999;48.994;9.150;2023-06-10T14:35:41;3.78;;;2.90;;
17753;SDS011;8999;48.994;9.150;2023-06-10T14:38:15;3.95;;;3.05;;
17753;SDS011;8999;48.994;9.150;2023-06-10T14:40:47;3.30;;;3.00;;
17753;SDS011;8999;48.994;9.150;2023-06-10T14:43:18;4.25;;;2.97;;
17753;SDS011;8999;48.994;9.150;2023-06-10T14:45:50;3.60;;;3.03;;
17753;SDS011;8999;48.994;9.150;2023-06-10T14:48:22;3.60;;;3.30;;
17753;SDS011;8999;48.994;9.150;2023-06-10T14:50:54;3.13;;;2.92;;
17753;SDS011;8999;48.994;9.150;2023-06-10T14:53:27;4.25;;;2.80;;
17753;SDS011;8999;48.994;9.150;2023-06-10T14:55:58;6.05;;;4.20;;
17753;SDS011;8999;48.994;9.150;2023-06-10T14:58:30;3.05;;;2.75;;
17753;SDS011;8999;48.994;9.150;2023-06-10T15:01:02;4.18;;;3.00;;
17753;SDS011;8999;48.994;9.150;2023-06-10T15:03:33;3.30;;;2.63;;
17753;SDS011;8999;48.994;9.150;2023-06-10T15:06:05;3.22;;;2.80;;
17753;SDS011;8999;48.994;9.150;2023-06-10T15:08:38;2.88;;;2.67;;
17753;SDS011;8999;48.994;9.150;2023-06-10T15:11:10;2.88;;;2.67;;
17753;SDS011;8999;48.994;9.150;2023-06-10T15:13:42;4.25;;;3.10;;
17753;SDS011;8999;48.994;9.150;2023-06-10T15:16:14;3.08;;;2.88;;
17753;SDS011;8999;48.994;9.150;2023-06-10T15:18:46;3.00;;;2.80;;
17753;SDS011;8999;48.994;9.150;2023-06-10T15:21:17;3.00;;;2.70;;
17753;SDS011;8999;48.994;9.150;2023-06-10T15:23:50;3.85;;;2.90;;
17753;SDS011;8999;48.994;9.150;2023-06-10T15:26:23;3.40;;;3.10;;
17753;SDS011;8999;48.994;9.150;2023-06-10T15:28:55;4.10;;;3.00;;
17753;SDS011;8999;48.994;9.150;2023-06-10T15:31:27;5.60;;;3.22;;
17753;SDS011;8999;48.994;9.150;2023-06-10T15:33:59;4.32;;;3.00;;